Seana C — WDJ3319 — position and weather

sailwx.info

Track history (hours):
 
Tides and Currents Weather Stations Pressure Air Temp Water Temp Dewpoint Dewpoint Depression Visibility Wind Speed Wind Dir Waves Ship Positions

Seana C

Owner: Curtin Maritime Corp, long beach, CA. More information available from US FCC via Universal Licensing System and Coast Guard Vessel Documentation Center.

Last reported at 2018-Feb-21 13:47 UTC. Time now 2018-Feb-22 09:13 UTC.
Position N 33°46' W 118°13'.

Length 21 m; draft 3 m.

Type: Tug. MMSI: 367766860.

Date/timePositionNaut miles runAvg speedWind from/ knotsBaromVisibWave heightAir tempDewpointWater temp
2018-Feb-21 13:47N 33°46' W 118°13'1 5.4
2018-Feb-21 13:30N 33°45' W 118°13'3 5.5
2018-Feb-21 12:54N 33°43' W 118°16'0 0.8
2018-Feb-21 12:23N 33°43' W 118°16'0 0.0
2018-Feb-21 11:59N 33°43' W 118°16'0 0.5
2018-Feb-21 10:58N 33°43' W 118°16'2 5.3
2018-Feb-21 10:30N 33°44' W 118°14'3 2.6
2018-Feb-21 09:28N 33°46' W 118°13'0 0.0
2018-Feb-20 18:48N 33°46' W 118°13'0 0.1
2018-Feb-20 18:22N 33°46' W 118°13'2 6.1
2018-Feb-20 18:01N 33°44' W 118°13'3 5.0
2018-Feb-20 17:29N 33°44' W 118°16'0 0.0
2018-Feb-20 17:00N 33°44' W 118°16'0 0.0
2018-Feb-20 16:30N 33°44' W 118°16'1 1.1
2018-Feb-20 15:56N 33°43' W 118°16'0 0.7
2018-Feb-20 15:29N 33°43' W 118°17'2 3.9
2018-Feb-20 15:00N 33°43' W 118°14'3 6.8
2018-Feb-20 14:31N 33°46' W 118°13'0 0.5
2018-Feb-20 13:58N 33°46' W 118°13'0 0.0
2018-Feb-20 11:44N 33°46' W 118°13'0 0.0
2018-Feb-20 11:25N 33°46' W 118°13'0 0.0
2018-Feb-20 08:11N 33°46' W 118°13'0 0.0
2018-Feb-20 07:53N 33°46' W 118°13'0 0.0
2018-Feb-20 06:36N 33°46' W 118°13'0 0.0
2018-Feb-20 06:30N 33°46' W 118°13'0 0.0
2018-Feb-20 05:26N 33°46' W 118°13'0 0.0
2018-Feb-20 04:43N 33°46' W 118°13'0 0.0
2018-Feb-20 04:20N 33°46' W 118°13'0 0.0
2018-Feb-20 03:42N 33°46' W 118°13'0 0.0
2018-Feb-20 03:30N 33°46' W 118°13'0 0.0
2018-Feb-20 01:49N 33°46' W 118°13'0 0.0
2018-Feb-20 01:29N 33°46' W 118°13'0 0.0
2018-Feb-20 00:59N 33°46' W 118°13'0 0.0
2018-Feb-20 00:23N 33°46' W 118°13'0 0.0
2018-Feb-19 23:58N 33°46' W 118°13'0 0.0
2018-Feb-19 23:28N 33°46' W 118°13'0 0.0
2018-Feb-19 22:59N 33°46' W 118°13'0 0.0
2018-Feb-19 22:28N 33°46' W 118°13'0 0.0
2018-Feb-19 21:58N 33°46' W 118°13'0 0.0
2018-Feb-19 21:18N 33°46' W 118°13'0 0.0
2018-Feb-19 21:00N 33°46' W 118°13'0 0.0
2018-Feb-19 20:30N 33°46' W 118°13'0 0.0
2018-Feb-19 19:58N 33°46' W 118°13'0 0.0
2018-Feb-19 19:26N 33°46' W 118°13'0 0.0
2018-Feb-19 18:57N 33°46' W 118°13'0 0.0
2018-Feb-19 18:30N 33°46' W 118°13'0 0.0
2018-Feb-19 17:59N 33°46' W 118°13'0 0.0
2018-Feb-19 17:25N 33°46' W 118°13'0 0.0
2018-Feb-19 16:55N 33°46' W 118°13'0 0.0
2018-Feb-19 16:29N 33°46' W 118°13'0 0.0
2018-Feb-19 15:58N 33°46' W 118°13'0 0.0
2018-Feb-19 15:28N 33°46' W 118°13'0 0.0
2018-Feb-19 14:55N 33°46' W 118°13'0 0.0
2018-Feb-19 14:19N 33°46' W 118°13'0 0.0
2018-Feb-19 13:56N 33°46' W 118°13'0 0.0
2018-Feb-19 13:26N 33°46' W 118°13'0 0.0
2018-Feb-19 11:40N 33°46' W 118°13'0 0.0
2018-Feb-19 11:28N 33°46' W 118°13'0 0.0
2018-Feb-19 10:52N 33°46' W 118°13'0 0.0
2018-Feb-19 10:21N 33°46' W 118°13'0 0.0
2018-Feb-19 09:56N 33°46' W 118°13'0 0.0
2018-Feb-19 09:19N 33°46' W 118°13'0 0.0
2018-Feb-19 08:53N 33°46' W 118°13'0 0.0
2018-Feb-19 05:59N 33°46' W 118°13'0 0.0
2018-Feb-19 05:23N 33°46' W 118°13'0 0.0
2018-Feb-19 04:53N 33°46' W 118°13'0 0.0
2018-Feb-19 04:30N 33°46' W 118°13'0 0.0
2018-Feb-19 03:53N 33°46' W 118°13'0 0.0
2018-Feb-19 03:18N 33°46' W 118°13'0 0.0
2018-Feb-19 02:59N 33°46' W 118°13'0 0.0
2018-Feb-19 02:04N 33°46' W 118°13'0 0.0
2018-Feb-19 02:00N 33°46' W 118°13'0 0.0
2018-Feb-19 01:26N 33°46' W 118°13'0 0.0
2018-Feb-19 00:59N 33°46' W 118°13'0 0.0
2018-Feb-19 00:29N 33°46' W 118°13'0 0.0
2018-Feb-18 23:58N 33°46' W 118°13'0 0.0
2018-Feb-18 23:28N 33°46' W 118°13'0 0.0
2018-Feb-18 23:00N 33°46' W 118°13'0 0.0
2018-Feb-18 22:22N 33°46' W 118°13'0 0.0
2018-Feb-18 21:55N 33°46' W 118°13'0 0.0
2018-Feb-18 21:23N 33°46' W 118°13'0 0.0
2018-Feb-18 20:57N 33°46' W 118°13'0 0.0
2018-Feb-18 20:30N 33°46' W 118°13'0 0.0
2018-Feb-18 19:58N 33°46' W 118°13'0 0.0
2018-Feb-18 19:26N 33°46' W 118°13'0 0.0
2018-Feb-18 18:54N 33°46' W 118°13'0 0.0
2018-Feb-18 18:28N 33°46' W 118°13'0 0.0
2018-Feb-18 17:58N 33°46' W 118°13'0 0.0
2018-Feb-18 17:29N 33°46' W 118°13'0 0.0
2018-Feb-18 16:58N 33°46' W 118°13'0 0.0
2018-Feb-18 16:30N 33°46' W 118°13'0 0.0
2018-Feb-18 15:58N 33°46' W 118°13'0 0.0
2018-Feb-18 15:24N 33°46' W 118°13'0 0.0
2018-Feb-18 14:58N 33°46' W 118°13'0 0.0
2018-Feb-18 14:20N 33°46' W 118°13'0 0.0
2018-Feb-18 13:43N 33°46' W 118°13'0 0.0
2018-Feb-18 13:28N 33°46' W 118°13'0 0.0
2018-Feb-18 12:59N 33°46' W 118°13'0 0.0
2018-Feb-18 12:30N 33°46' W 118°13'0 0.0
2018-Feb-18 11:57N 33°46' W 118°13'0 0.0
2018-Feb-18 11:29N 33°46' W 118°13'0 0.0
2018-Feb-18 10:53N 33°46' W 118°13'0 0.0
2018-Feb-18 10:27N 33°46' W 118°13'0 0.0
2018-Feb-18 09:49N 33°46' W 118°13'0 0.0
2018-Feb-18 09:28N 33°46' W 118°13'0 0.0
2018-Feb-18 09:00N 33°46' W 118°13'0 0.0
2018-Feb-18 08:23N 33°46' W 118°13'0 0.0
2018-Feb-18 07:59N 33°46' W 118°13'0 0.0
2018-Feb-18 07:17N 33°46' W 118°13'0 0.0
2018-Feb-18 06:56N 33°46' W 118°13'0 0.0
2018-Feb-18 06:30N 33°46' W 118°13'0 0.0
2018-Feb-18 05:57N 33°46' W 118°13'0 0.0
2018-Feb-18 05:29N 33°46' W 118°13'0 0.0
2018-Feb-18 04:59N 33°46' W 118°13'0 0.0
2018-Feb-18 04:20N 33°46' W 118°13'0 0.0
2018-Feb-18 03:44N 33°46' W 118°13'0 0.0
2018-Feb-18 03:24N 33°46' W 118°13'0 0.0
2018-Feb-18 02:53N 33°46' W 118°13'0 0.0
2018-Feb-18 02:29N 33°46' W 118°13'0 0.0
2018-Feb-18 02:00N 33°46' W 118°13'0 0.0
2018-Feb-18 01:26N 33°46' W 118°13'0 0.0
2018-Feb-18 00:59N 33°46' W 118°13'0 0.0
2018-Feb-18 00:28N 33°46' W 118°13'0 0.0
2018-Feb-18 00:00N 33°46' W 118°13'0 0.0
2018-Feb-17 23:27N 33°46' W 118°13'0 0.0
2018-Feb-17 22:57N 33°46' W 118°13'0 0.0
2018-Feb-17 22:29N 33°46' W 118°13'0 0.0
2018-Feb-17 22:00N 33°46' W 118°13'0 0.0
2018-Feb-17 21:30N 33°46' W 118°13'0 0.0
2018-Feb-17 20:59N 33°46' W 118°13'0 0.0
2018-Feb-17 20:28N 33°46' W 118°13'0 0.0
2018-Feb-17 19:59N 33°46' W 118°13'0 0.0
2018-Feb-17 19:23N 33°46' W 118°13'0 0.0
2018-Feb-17 18:58N 33°46' W 118°13'0 0.0
2018-Feb-17 18:28N 33°46' W 118°13'0 0.0
2018-Feb-17 17:58N 33°46' W 118°13'0 0.0
2018-Feb-17 17:29N 33°46' W 118°13'0 0.0
2018-Feb-17 17:00N 33°46' W 118°13'0 0.0
2018-Feb-17 16:27N 33°46' W 118°13'0 0.0
2018-Feb-17 15:59N 33°46' W 118°13'0 0.0
2018-Feb-17 15:28N 33°46' W 118°13'0 0.0
2018-Feb-17 14:59N 33°46' W 118°13'0 0.0
2018-Feb-17 14:29N 33°46' W 118°13'0 0.0
2018-Feb-17 13:36N 33°46' W 118°13'0 0.1
2018-Feb-17 13:30N 33°46' W 118°13'0 0.0
2018-Feb-17 13:00N 33°46' W 118°13'0 0.0
2018-Feb-17 12:30N 33°46' W 118°13'0 0.0
2018-Feb-17 11:51N 33°46' W 118°13'0 0.0
2018-Feb-17 11:30N 33°46' W 118°13'0 0.0
2018-Feb-17 10:59N 33°46' W 118°13'0 0.0
2018-Feb-17 10:28N 33°46' W 118°13'0 0.0
2018-Feb-17 09:54N 33°46' W 118°13'0 0.0
2018-Feb-17 09:29N 33°46' W 118°13'0 0.0
2018-Feb-17 06:34N 33°46' W 118°13'0 0.0
2018-Feb-17 06:25N 33°46' W 118°13'0 0.0
2018-Feb-17 05:56N 33°46' W 118°13'0 0.0
2018-Feb-17 01:49N 33°46' W 118°13'0 0.0
2018-Feb-17 01:30N 33°46' W 118°13'0 0.0
2018-Feb-17 01:00N 33°46' W 118°13'0 0.0
2018-Feb-17 00:26N 33°46' W 118°13'0 0.0
2018-Feb-16 23:58N 33°46' W 118°13'0 0.0
2018-Feb-16 23:27N 33°46' W 118°13'0 0.0
2018-Feb-16 22:57N 33°46' W 118°13'0 0.1
2018-Feb-16 22:28N 33°46' W 118°13'0 0.1
2018-Feb-16 21:58N 33°46' W 118°13'0 0.0
2018-Feb-16 21:28N 33°46' W 118°13'0 0.0
2018-Feb-16 21:00N 33°46' W 118°13'0 0.0
2018-Feb-16 20:21N 33°46' W 118°13'0 0.0
2018-Feb-16 19:50N 33°46' W 118°13'0 0.0
2018-Feb-16 19:29N 33°46' W 118°13'0 0.0
2018-Feb-16 19:00N 33°46' W 118°13'0 0.0
2018-Feb-16 18:26N 33°46' W 118°13'0 0.0
2018-Feb-16 17:56N 33°46' W 118°13'0 0.0
2018-Feb-16 17:26N 33°46' W 118°13'0 0.0
2018-Feb-16 16:58N 33°46' W 118°13'0 0.0
2018-Feb-16 16:25N 33°46' W 118°13'0 0.0
2018-Feb-16 15:58N 33°46' W 118°13'0 0.0
2018-Feb-16 15:29N 33°46' W 118°13'0 0.0
2018-Feb-16 15:00N 33°46' W 118°13'0 0.0
2018-Feb-16 10:49N 33°46' W 118°13'0 0.0
2018-Feb-16 01:38N 33°46' W 118°13'0 0.0
2018-Feb-16 01:29N 33°46' W 118°13'0 0.0
2018-Feb-16 00:59N 33°46' W 118°13'0 0.0
2018-Feb-16 00:20N 33°46' W 118°13'0 0.0
2018-Feb-15 23:58N 33°46' W 118°13'0 0.0
2018-Feb-15 23:30N 33°46' W 118°13'0 0.0
2018-Feb-15 22:58N 33°46' W 118°13'0 0.0
2018-Feb-15 22:30N 33°46' W 118°13'0 0.0
2018-Feb-15 22:00N 33°46' W 118°13'0 0.0
2018-Feb-15 21:28N 33°46' W 118°13'0 0.0
2018-Feb-15 21:00N 33°46' W 118°13'0 0.0
2018-Feb-15 20:28N 33°46' W 118°13'0 0.0
2018-Feb-15 19:55N 33°46' W 118°13'0 0.0
2018-Feb-15 19:26N 33°46' W 118°13'0 0.0
2018-Feb-15 18:54N 33°46' W 118°13'0 0.0
2018-Feb-15 18:30N 33°46' W 118°13'0 0.0
2018-Feb-15 18:00N 33°46' W 118°13'0 0.0
2018-Feb-15 17:29N 33°46' W 118°13'0 0.0
2018-Feb-15 16:59N 33°46' W 118°13'0 0.0
2018-Feb-15 16:28N 33°46' W 118°13'0 0.0
2018-Feb-15 15:56N 33°46' W 118°13'0 0.0
2018-Feb-15 15:28N 33°46' W 118°13'0 0.0
2018-Feb-15 14:59N 33°46' W 118°13'0 0.0
2018-Feb-15 10:23N 33°46' W 118°13'0 0.0
2018-Feb-15 10:00N 33°46' W 118°13'0 0.0
2018-Feb-15 09:30N 33°46' W 118°13'0 0.0
2018-Feb-15 08:57N 33°46' W 118°13'0 0.0
2018-Feb-15 08:21N 33°46' W 118°13'0 0.0
2018-Feb-15 07:57N 33°46' W 118°13'0 0.0
2018-Feb-15 07:23N 33°46' W 118°13'0 0.0
2018-Feb-15 06:23N 33°46' W 118°13'0 0.0
2018-Feb-15 05:58N 33°46' W 118°13'0 0.0
2018-Feb-15 05:22N 33°46' W 118°13'0 0.0
2018-Feb-15 04:58N 33°46' W 118°13'0 0.0
2018-Feb-15 04:25N 33°46' W 118°13'0 0.0
2018-Feb-15 01:42N 33°46' W 118°13'0 0.0
2018-Feb-15 01:29N 33°46' W 118°13'0 0.0
2018-Feb-15 01:00N 33°46' W 118°13'0 0.0
2018-Feb-15 00:30N 33°46' W 118°13'0 0.0
2018-Feb-14 23:57N 33°46' W 118°13'0 0.0
2018-Feb-14 23:28N 33°46' W 118°13'0 0.0
2018-Feb-14 22:58N 33°46' W 118°13'0 0.0
2018-Feb-14 22:29N 33°46' W 118°13'0 0.0
2018-Feb-14 21:58N 33°46' W 118°13'0 0.0
2018-Feb-14 21:29N 33°46' W 118°13'0 0.0
2018-Feb-14 20:56N 33°46' W 118°13'0 0.0
2018-Feb-14 20:24N 33°46' W 118°13'0 0.0
2018-Feb-14 19:55N 33°46' W 118°13'0 0.0
2018-Feb-14 19:17N 33°46' W 118°13'0 0.0
2018-Feb-14 18:59N 33°46' W 118°13'0 0.0
2018-Feb-14 18:28N 33°46' W 118°13'0 0.0
2018-Feb-14 17:56N 33°46' W 118°13'0 0.0
2018-Feb-14 17:25N 33°46' W 118°13'0 0.0
2018-Feb-14 16:59N 33°46' W 118°13'0 0.0
2018-Feb-14 16:28N 33°46' W 118°13'0 0.0
2018-Feb-14 15:55N 33°46' W 118°13'0 0.0
2018-Feb-14 15:23N 33°46' W 118°13'0 0.0
2018-Feb-14 14:56N 33°46' W 118°13'0 0.1
2018-Feb-14 14:09N 33°46' W 118°13'0 0.0
2018-Feb-14 13:42N 33°46' W 118°13'0 0.0
2018-Feb-14 13:23N 33°46' W 118°13'0 0.0
2018-Feb-14 12:58N 33°46' W 118°13'0 0.0
2018-Feb-14 12:30N 33°46' W 118°13'0 0.0
2018-Feb-14 11:37N 33°46' W 118°13'0 0.0
2018-Feb-14 11:19N 33°46' W 118°13'0 0.0
2018-Feb-14 10:52N 33°46' W 118°13'0 0.0
2018-Feb-14 10:29N 33°46' W 118°13'0 0.0
2018-Feb-14 09:55N 33°46' W 118°13'0 0.0
2018-Feb-14 05:18N 33°46' W 118°13'0 0.0
2018-Feb-14 02:59N 33°46' W 118°13'0 0.0
2018-Feb-14 01:45N 33°46' W 118°13'0 0.0
2018-Feb-14 01:30N 33°46' W 118°13'0 0.0
2018-Feb-14 00:58N 33°46' W 118°13'0 0.0
2018-Feb-14 00:30N 33°46' W 118°13'0 0.0
2018-Feb-13 23:58N 33°46' W 118°13'0 0.0
2018-Feb-13 23:27N 33°46' W 118°13'0 0.0
2018-Feb-13 22:58N 33°46' W 118°13'0 0.0
2018-Feb-13 22:28N 33°46' W 118°13'0 0.0
2018-Feb-13 21:57N 33°46' W 118°13'0 0.0
2018-Feb-13 21:30N 33°46' W 118°13'0 0.0
2018-Feb-13 20:54N 33°46' W 118°13'0 0.0
2018-Feb-13 20:29N 33°46' W 118°13'0 0.0
2018-Feb-13 19:58N 33°46' W 118°13'0 0.0
2018-Feb-13 19:26N 33°46' W 118°13'0 0.0
2018-Feb-13 19:00N 33°46' W 118°13'0 0.0
2018-Feb-13 18:30N 33°46' W 118°13'0 0.0
2018-Feb-13 18:00N 33°46' W 118°13'0 0.0
2018-Feb-13 17:26N 33°46' W 118°13'0 0.0
2018-Feb-13 16:59N 33°46' W 118°13'0 0.0
2018-Feb-13 16:27N 33°46' W 118°13'0 0.0
2018-Feb-13 15:57N 33°46' W 118°13'0 0.0
2018-Feb-13 15:26N 33°46' W 118°13'0 0.0
2018-Feb-13 14:58N 33°46' W 118°13'0 0.0
2018-Feb-13 06:50N 33°46' W 118°13'0 0.0
2018-Feb-13 01:42N 33°46' W 118°13'0 0.0
2018-Feb-13 01:29N 33°46' W 118°13'0 0.0
2018-Feb-13 01:00N 33°46' W 118°13'0 0.0
2018-Feb-13 00:28N 33°46' W 118°13'0 0.0
2018-Feb-12 23:57N 33°46' W 118°13'0 0.0
2018-Feb-12 23:29N 33°46' W 118°13'0 0.0
2018-Feb-12 22:53N 33°46' W 118°13'0 0.0
2018-Feb-12 22:30N 33°46' W 118°13'0 0.0
2018-Feb-12 21:59N 33°46' W 118°13'0 0.0
2018-Feb-12 21:26N 33°46' W 118°13'0 0.0
2018-Feb-12 20:57N 33°46' W 118°13'0 0.0
2018-Feb-12 20:26N 33°46' W 118°13'0 0.0
2018-Feb-12 19:58N 33°46' W 118°13'0 0.0
2018-Feb-12 19:28N 33°46' W 118°13'0 0.0
2018-Feb-12 18:58N 33°46' W 118°13'0 0.0
2018-Feb-12 18:28N 33°46' W 118°13'0 0.0
2018-Feb-12 17:59N 33°46' W 118°13'0 0.0
2018-Feb-12 17:29N 33°46' W 118°13'0 0.0
2018-Feb-12 16:54N 33°46' W 118°13'0 0.0
2018-Feb-12 16:30N 33°46' W 118°13'0 0.0
2018-Feb-12 15:58N 33°46' W 118°13'0 0.0
2018-Feb-12 15:17N 33°46' W 118°13'0 0.0
2018-Feb-12 15:00N 33°46' W 118°13'0 0.0
2018-Feb-12 14:01N 33°46' W 118°13'0 0.0
2018-Feb-12 13:58N 33°46' W 118°13'0 0.0
2018-Feb-12 13:26N 33°46' W 118°13'0 0.0
2018-Feb-12 12:58N 33°46' W 118°13'0 0.0
2018-Feb-12 12:27N 33°46' W 118°13'0 0.0
2018-Feb-12 11:58N 33°46' W 118°13'0 0.0
2018-Feb-12 11:29N 33°46' W 118°13'0 0.0
2018-Feb-12 10:48N 33°46' W 118°13'0 0.0
2018-Feb-12 10:30N 33°46' W 118°13'0 0.0
2018-Feb-12 06:14N 33°46' W 118°13'0 0.0
2018-Feb-12 06:00N 33°46' W 118°13'0 0.0
2018-Feb-12 05:22N 33°46' W 118°13'0 0.0
2018-Feb-12 04:56N 33°46' W 118°13'0 0.0
2018-Feb-12 04:25N 33°46' W 118°13'0 0.0
2018-Feb-12 03:55N 33°46' W 118°13'0 0.0
2018-Feb-12 02:13N 33°46' W 118°13'0 0.0
2018-Feb-12 01:56N 33°46' W 118°13'0 0.0
2018-Feb-12 01:25N 33°46' W 118°13'0 0.0
2018-Feb-12 00:57N 33°46' W 118°13'0 0.0
2018-Feb-12 00:28N 33°46' W 118°13'0 0.0
2018-Feb-11 23:56N 33°46' W 118°13'0 0.0
2018-Feb-11 23:28N 33°46' W 118°13'0 0.0
2018-Feb-11 22:54N 33°46' W 118°13'0 0.0
2018-Feb-11 22:28N 33°46' W 118°13'0 0.0
2018-Feb-11 21:55N 33°46' W 118°13'0 0.0
2018-Feb-11 21:30N 33°46' W 118°13'0 0.0
2018-Feb-11 21:00N 33°46' W 118°13'0 0.0
2018-Feb-11 20:29N 33°46' W 118°13'0 0.0
2018-Feb-11 19:57N 33°46' W 118°13'0 0.0
2018-Feb-11 19:30N 33°46' W 118°13'0 0.0
2018-Feb-11 18:59N 33°46' W 118°13'0 0.0
2018-Feb-11 18:28N 33°46' W 118°13'0 0.0
2018-Feb-11 17:58N 33°46' W 118°13'0 0.0
2018-Feb-11 17:28N 33°46' W 118°13'0 0.0
2018-Feb-11 16:58N 33°46' W 118°13'0 0.0
2018-Feb-11 16:30N 33°46' W 118°13'0 0.1
2018-Feb-11 15:59N 33°46' W 118°13'0 0.0
2018-Feb-11 15:24N 33°46' W 118°13'0 0.0
2018-Feb-11 14:54N 33°46' W 118°13'  
Track history (hours):
 
Tides and Currents Weather Stations Pressure Air Temp Water Temp Dewpoint Dewpoint Depression Visibility Wind Speed Wind Dir Waves Ship Positions

Seana C

Owner: Curtin Maritime Corp, long beach, CA. More information available from US FCC via Universal Licensing System and Coast Guard Vessel Documentation Center.

Last reported at 2018-Feb-21 13:47 UTC. Time now 2018-Feb-22 09:13 UTC.
Position N 33°46' W 118°13'.

Length 21 m; draft 3 m.

Type: Tug. MMSI: 367766860.

Date/timePositionNaut miles runAvg speedWind from/ knotsBaromVisibWave heightAir tempDewpointWater temp
2018-Feb-21 13:47N 33°46' W 118°13'1 5.4
2018-Feb-21 13:30N 33°45' W 118°13'3 5.5
2018-Feb-21 12:54N 33°43' W 118°16'0 0.8
2018-Feb-21 12:23N 33°43' W 118°16'0 0.0
2018-Feb-21 11:59N 33°43' W 118°16'0 0.5
2018-Feb-21 10:58N 33°43' W 118°16'2 5.3
2018-Feb-21 10:30N 33°44' W 118°14'3 2.6
2018-Feb-21 09:28N 33°46' W 118°13'0 0.0
2018-Feb-20 18:48N 33°46' W 118°13'0 0.1
2018-Feb-20 18:22N 33°46' W 118°13'2 6.1
2018-Feb-20 18:01N 33°44' W 118°13'3 5.0
2018-Feb-20 17:29N 33°44' W 118°16'0 0.0
2018-Feb-20 17:00N 33°44' W 118°16'0 0.0
2018-Feb-20 16:30N 33°44' W 118°16'1 1.1
2018-Feb-20 15:56N 33°43' W 118°16'0 0.7
2018-Feb-20 15:29N 33°43' W 118°17'2 3.9
2018-Feb-20 15:00N 33°43' W 118°14'3 6.8
2018-Feb-20 14:31N 33°46' W 118°13'0 0.5
2018-Feb-20 13:58N 33°46' W 118°13'0 0.0
2018-Feb-20 11:44N 33°46' W 118°13'0 0.0
2018-Feb-20 11:25N 33°46' W 118°13'0 0.0
2018-Feb-20 08:11N 33°46' W 118°13'0 0.0
2018-Feb-20 07:53N 33°46' W 118°13'0 0.0
2018-Feb-20 06:36N 33°46' W 118°13'0 0.0
2018-Feb-20 06:30N 33°46' W 118°13'0 0.0
2018-Feb-20 05:26N 33°46' W 118°13'0 0.0
2018-Feb-20 04:43N 33°46' W 118°13'0 0.0
2018-Feb-20 04:20N 33°46' W 118°13'0 0.0
2018-Feb-20 03:42N 33°46' W 118°13'0 0.0
2018-Feb-20 03:30N 33°46' W 118°13'0 0.0
2018-Feb-20 01:49N 33°46' W 118°13'0 0.0
2018-Feb-20 01:29N 33°46' W 118°13'0 0.0
2018-Feb-20 00:59N 33°46' W 118°13'0 0.0
2018-Feb-20 00:23N 33°46' W 118°13'0 0.0
2018-Feb-19 23:58N 33°46' W 118°13'0 0.0
2018-Feb-19 23:28N 33°46' W 118°13'0 0.0
2018-Feb-19 22:59N 33°46' W 118°13'0 0.0
2018-Feb-19 22:28N 33°46' W 118°13'0 0.0
2018-Feb-19 21:58N 33°46' W 118°13'0 0.0
2018-Feb-19 21:18N 33°46' W 118°13'0 0.0
2018-Feb-19 21:00N 33°46' W 118°13'0 0.0
2018-Feb-19 20:30N 33°46' W 118°13'0 0.0
2018-Feb-19 19:58N 33°46' W 118°13'0 0.0
2018-Feb-19 19:26N 33°46' W 118°13'0 0.0
2018-Feb-19 18:57N 33°46' W 118°13'0 0.0
2018-Feb-19 18:30N 33°46' W 118°13'0 0.0
2018-Feb-19 17:59N 33°46' W 118°13'0 0.0
2018-Feb-19 17:25N 33°46' W 118°13'0 0.0
2018-Feb-19 16:55N 33°46' W 118°13'0 0.0
2018-Feb-19 16:29N 33°46' W 118°13'0 0.0
2018-Feb-19 15:58N 33°46' W 118°13'0 0.0
2018-Feb-19 15:28N 33°46' W 118°13'0 0.0
2018-Feb-19 14:55N 33°46' W 118°13'0 0.0
2018-Feb-19 14:19N 33°46' W 118°13'0 0.0
2018-Feb-19 13:56N 33°46' W 118°13'0 0.0
2018-Feb-19 13:26N 33°46' W 118°13'0 0.0
2018-Feb-19 11:40N 33°46' W 118°13'0 0.0
2018-Feb-19 11:28N 33°46' W 118°13'0 0.0
2018-Feb-19 10:52N 33°46' W 118°13'0 0.0
2018-Feb-19 10:21N 33°46' W 118°13'0 0.0
2018-Feb-19 09:56N 33°46' W 118°13'0 0.0
2018-Feb-19 09:19N 33°46' W 118°13'0 0.0
2018-Feb-19 08:53N 33°46' W 118°13'0 0.0
2018-Feb-19 05:59N 33°46' W 118°13'0 0.0
2018-Feb-19 05:23N 33°46' W 118°13'0 0.0
2018-Feb-19 04:53N 33°46' W 118°13'0 0.0
2018-Feb-19 04:30N 33°46' W 118°13'0 0.0
2018-Feb-19 03:53N 33°46' W 118°13'0 0.0
2018-Feb-19 03:18N 33°46' W 118°13'0 0.0
2018-Feb-19 02:59N 33°46' W 118°13'0 0.0
2018-Feb-19 02:04N 33°46' W 118°13'0 0.0
2018-Feb-19 02:00N 33°46' W 118°13'0 0.0
2018-Feb-19 01:26N 33°46' W 118°13'0 0.0
2018-Feb-19 00:59N 33°46' W 118°13'0 0.0
2018-Feb-19 00:29N 33°46' W 118°13'0 0.0
2018-Feb-18 23:58N 33°46' W 118°13'0 0.0
2018-Feb-18 23:28N 33°46' W 118°13'0 0.0
2018-Feb-18 23:00N 33°46' W 118°13'0 0.0
2018-Feb-18 22:22N 33°46' W 118°13'0 0.0
2018-Feb-18 21:55N 33°46' W 118°13'0 0.0
2018-Feb-18 21:23N 33°46' W 118°13'0 0.0
2018-Feb-18 20:57N 33°46' W 118°13'0 0.0
2018-Feb-18 20:30N 33°46' W 118°13'0 0.0
2018-Feb-18 19:58N 33°46' W 118°13'0 0.0
2018-Feb-18 19:26N 33°46' W 118°13'0 0.0
2018-Feb-18 18:54N 33°46' W 118°13'0 0.0
2018-Feb-18 18:28N 33°46' W 118°13'0 0.0
2018-Feb-18 17:58N 33°46' W 118°13'0 0.0
2018-Feb-18 17:29N 33°46' W 118°13'0 0.0
2018-Feb-18 16:58N 33°46' W 118°13'0 0.0
2018-Feb-18 16:30N 33°46' W 118°13'0 0.0
2018-Feb-18 15:58N 33°46' W 118°13'0 0.0
2018-Feb-18 15:24N 33°46' W 118°13'0 0.0
2018-Feb-18 14:58N 33°46' W 118°13'0 0.0
2018-Feb-18 14:20N 33°46' W 118°13'0 0.0
2018-Feb-18 13:43N 33°46' W 118°13'0 0.0
2018-Feb-18 13:28N 33°46' W 118°13'0 0.0
2018-Feb-18 12:59N 33°46' W 118°13'0 0.0
2018-Feb-18 12:30N 33°46' W 118°13'0 0.0
2018-Feb-18 11:57N 33°46' W 118°13'0 0.0
2018-Feb-18 11:29N 33°46' W 118°13'0 0.0
2018-Feb-18 10:53N 33°46' W 118°13'0 0.0
2018-Feb-18 10:27N 33°46' W 118°13'0 0.0
2018-Feb-18 09:49N 33°46' W 118°13'0 0.0
2018-Feb-18 09:28N 33°46' W 118°13'0 0.0
2018-Feb-18 09:00N 33°46' W 118°13'0 0.0
2018-Feb-18 08:23N 33°46' W 118°13'0 0.0
2018-Feb-18 07:59N 33°46' W 118°13'0 0.0
2018-Feb-18 07:17N 33°46' W 118°13'0 0.0
2018-Feb-18 06:56N 33°46' W 118°13'0 0.0
2018-Feb-18 06:30N 33°46' W 118°13'0 0.0
2018-Feb-18 05:57N 33°46' W 118°13'0 0.0
2018-Feb-18 05:29N 33°46' W 118°13'0 0.0
2018-Feb-18 04:59N 33°46' W 118°13'0 0.0
2018-Feb-18 04:20N 33°46' W 118°13'0 0.0
2018-Feb-18 03:44N 33°46' W 118°13'0 0.0
2018-Feb-18 03:24N 33°46' W 118°13'0 0.0
2018-Feb-18 02:53N 33°46' W 118°13'0 0.0
2018-Feb-18 02:29N 33°46' W 118°13'0 0.0
2018-Feb-18 02:00N 33°46' W 118°13'0 0.0
2018-Feb-18 01:26N 33°46' W 118°13'0 0.0
2018-Feb-18 00:59N 33°46' W 118°13'0 0.0
2018-Feb-18 00:28N 33°46' W 118°13'0 0.0
2018-Feb-18 00:00N 33°46' W 118°13'0 0.0
2018-Feb-17 23:27N 33°46' W 118°13'0 0.0
2018-Feb-17 22:57N 33°46' W 118°13'0 0.0
2018-Feb-17 22:29N 33°46' W 118°13'0 0.0
2018-Feb-17 22:00N 33°46' W 118°13'0 0.0
2018-Feb-17 21:30N 33°46' W 118°13'0 0.0
2018-Feb-17 20:59N 33°46' W 118°13'0 0.0
2018-Feb-17 20:28N 33°46' W 118°13'0 0.0
2018-Feb-17 19:59N 33°46' W 118°13'0 0.0
2018-Feb-17 19:23N 33°46' W 118°13'0 0.0
2018-Feb-17 18:58N 33°46' W 118°13'0 0.0
2018-Feb-17 18:28N 33°46' W 118°13'0 0.0
2018-Feb-17 17:58N 33°46' W 118°13'0 0.0
2018-Feb-17 17:29N 33°46' W 118°13'0 0.0
2018-Feb-17 17:00N 33°46' W 118°13'0 0.0
2018-Feb-17 16:27N 33°46' W 118°13'0 0.0
2018-Feb-17 15:59N 33°46' W 118°13'0 0.0
2018-Feb-17 15:28N 33°46' W 118°13'0 0.0
2018-Feb-17 14:59N 33°46' W 118°13'0 0.0
2018-Feb-17 14:29N 33°46' W 118°13'0 0.0
2018-Feb-17 13:36N 33°46' W 118°13'0 0.1
2018-Feb-17 13:30N 33°46' W 118°13'0 0.0
2018-Feb-17 13:00N 33°46' W 118°13'0 0.0
2018-Feb-17 12:30N 33°46' W 118°13'0 0.0
2018-Feb-17 11:51N 33°46' W 118°13'0 0.0
2018-Feb-17 11:30N 33°46' W 118°13'0 0.0
2018-Feb-17 10:59N 33°46' W 118°13'0 0.0
2018-Feb-17 10:28N 33°46' W 118°13'0 0.0
2018-Feb-17 09:54N 33°46' W 118°13'0 0.0
2018-Feb-17 09:29N 33°46' W 118°13'0 0.0
2018-Feb-17 06:34N 33°46' W 118°13'0 0.0
2018-Feb-17 06:25N 33°46' W 118°13'0 0.0
2018-Feb-17 05:56N 33°46' W 118°13'0 0.0
2018-Feb-17 01:49N 33°46' W 118°13'0 0.0
2018-Feb-17 01:30N 33°46' W 118°13'0 0.0
2018-Feb-17 01:00N 33°46' W 118°13'0 0.0
2018-Feb-17 00:26N 33°46' W 118°13'0 0.0
2018-Feb-16 23:58N 33°46' W 118°13'0 0.0
2018-Feb-16 23:27N 33°46' W 118°13'0 0.0
2018-Feb-16 22:57N 33°46' W 118°13'0 0.1
2018-Feb-16 22:28N 33°46' W 118°13'0 0.1
2018-Feb-16 21:58N 33°46' W 118°13'0 0.0
2018-Feb-16 21:28N 33°46' W 118°13'0 0.0
2018-Feb-16 21:00N 33°46' W 118°13'0 0.0
2018-Feb-16 20:21N 33°46' W 118°13'0 0.0
2018-Feb-16 19:50N 33°46' W 118°13'0 0.0
2018-Feb-16 19:29N 33°46' W 118°13'0 0.0
2018-Feb-16 19:00N 33°46' W 118°13'0 0.0
2018-Feb-16 18:26N 33°46' W 118°13'0 0.0
2018-Feb-16 17:56N 33°46' W 118°13'0 0.0
2018-Feb-16 17:26N 33°46' W 118°13'0 0.0
2018-Feb-16 16:58N 33°46' W 118°13'0 0.0
2018-Feb-16 16:25N 33°46' W 118°13'0 0.0
2018-Feb-16 15:58N 33°46' W 118°13'0 0.0
2018-Feb-16 15:29N 33°46' W 118°13'0 0.0
2018-Feb-16 15:00N 33°46' W 118°13'0 0.0
2018-Feb-16 10:49N 33°46' W 118°13'0 0.0
2018-Feb-16 01:38N 33°46' W 118°13'0 0.0
2018-Feb-16 01:29N 33°46' W 118°13'0 0.0
2018-Feb-16 00:59N 33°46' W 118°13'0 0.0
2018-Feb-16 00:20N 33°46' W 118°13'0 0.0
2018-Feb-15 23:58N 33°46' W 118°13'0 0.0
2018-Feb-15 23:30N 33°46' W 118°13'0 0.0
2018-Feb-15 22:58N 33°46' W 118°13'0 0.0
2018-Feb-15 22:30N 33°46' W 118°13'0 0.0
2018-Feb-15 22:00N 33°46' W 118°13'0 0.0
2018-Feb-15 21:28N 33°46' W 118°13'0 0.0
2018-Feb-15 21:00N 33°46' W 118°13'0 0.0
2018-Feb-15 20:28N 33°46' W 118°13'0 0.0
2018-Feb-15 19:55N 33°46' W 118°13'0 0.0
2018-Feb-15 19:26N 33°46' W 118°13'0 0.0
2018-Feb-15 18:54N 33°46' W 118°13'0 0.0
2018-Feb-15 18:30N 33°46' W 118°13'0 0.0
2018-Feb-15 18:00N 33°46' W 118°13'0 0.0
2018-Feb-15 17:29N 33°46' W 118°13'0 0.0
2018-Feb-15 16:59N 33°46' W 118°13'0 0.0
2018-Feb-15 16:28N 33°46' W 118°13'0 0.0
2018-Feb-15 15:56N 33°46' W 118°13'0 0.0
2018-Feb-15 15:28N 33°46' W 118°13'0 0.0
2018-Feb-15 14:59N 33°46' W 118°13'0 0.0
2018-Feb-15 10:23N 33°46' W 118°13'0 0.0
2018-Feb-15 10:00N 33°46' W 118°13'0 0.0
2018-Feb-15 09:30N 33°46' W 118°13'0 0.0
2018-Feb-15 08:57N 33°46' W 118°13'0 0.0
2018-Feb-15 08:21N 33°46' W 118°13'0 0.0
2018-Feb-15 07:57N 33°46' W 118°13'0 0.0
2018-Feb-15 07:23N 33°46' W 118°13'0 0.0
2018-Feb-15 06:23N 33°46' W 118°13'0 0.0
2018-Feb-15 05:58N 33°46' W 118°13'0 0.0
2018-Feb-15 05:22N 33°46' W 118°13'0 0.0
2018-Feb-15 04:58N 33°46' W 118°13'0 0.0
2018-Feb-15 04:25N 33°46' W 118°13'0 0.0
2018-Feb-15 01:42N 33°46' W 118°13'0 0.0
2018-Feb-15 01:29N 33°46' W 118°13'0 0.0
2018-Feb-15 01:00N 33°46' W 118°13'0 0.0
2018-Feb-15 00:30N 33°46' W 118°13'0 0.0
2018-Feb-14 23:57N 33°46' W 118°13'0 0.0
2018-Feb-14 23:28N 33°46' W 118°13'0 0.0
2018-Feb-14 22:58N 33°46' W 118°13'0 0.0
2018-Feb-14 22:29N 33°46' W 118°13'0 0.0
2018-Feb-14 21:58N 33°46' W 118°13'0 0.0
2018-Feb-14 21:29N 33°46' W 118°13'0 0.0
2018-Feb-14 20:56N 33°46' W 118°13'0 0.0
2018-Feb-14 20:24N 33°46' W 118°13'0 0.0
2018-Feb-14 19:55N 33°46' W 118°13'0 0.0
2018-Feb-14 19:17N 33°46' W 118°13'0 0.0
2018-Feb-14 18:59N 33°46' W 118°13'0 0.0
2018-Feb-14 18:28N 33°46' W 118°13'0 0.0
2018-Feb-14 17:56N 33°46' W 118°13'0 0.0
2018-Feb-14 17:25N 33°46' W 118°13'0 0.0
2018-Feb-14 16:59N 33°46' W 118°13'0 0.0
2018-Feb-14 16:28N 33°46' W 118°13'0 0.0
2018-Feb-14 15:55N 33°46' W 118°13'0 0.0
2018-Feb-14 15:23N 33°46' W 118°13'0 0.0
2018-Feb-14 14:56N 33°46' W 118°13'0 0.1
2018-Feb-14 14:09N 33°46' W 118°13'0 0.0
2018-Feb-14 13:42N 33°46' W 118°13'0 0.0
2018-Feb-14 13:23N 33°46' W 118°13'0 0.0
2018-Feb-14 12:58N 33°46' W 118°13'0 0.0
2018-Feb-14 12:30N 33°46' W 118°13'0 0.0
2018-Feb-14 11:37N 33°46' W 118°13'0 0.0
2018-Feb-14 11:19N 33°46' W 118°13'0 0.0
2018-Feb-14 10:52N 33°46' W 118°13'0 0.0
2018-Feb-14 10:29N 33°46' W 118°13'0 0.0
2018-Feb-14 09:55N 33°46' W 118°13'0 0.0
2018-Feb-14 05:18N 33°46' W 118°13'0 0.0
2018-Feb-14 02:59N 33°46' W 118°13'0 0.0
2018-Feb-14 01:45N 33°46' W 118°13'0 0.0
2018-Feb-14 01:30N 33°46' W 118°13'0 0.0
2018-Feb-14 00:58N 33°46' W 118°13'0 0.0
2018-Feb-14 00:30N 33°46' W 118°13'0 0.0
2018-Feb-13 23:58N 33°46' W 118°13'0 0.0
2018-Feb-13 23:27N 33°46' W 118°13'0 0.0
2018-Feb-13 22:58N 33°46' W 118°13'0 0.0
2018-Feb-13 22:28N 33°46' W 118°13'0 0.0
2018-Feb-13 21:57N 33°46' W 118°13'0 0.0
2018-Feb-13 21:30N 33°46' W 118°13'0 0.0
2018-Feb-13 20:54N 33°46' W 118°13'0 0.0
2018-Feb-13 20:29N 33°46' W 118°13'0 0.0
2018-Feb-13 19:58N 33°46' W 118°13'0 0.0
2018-Feb-13 19:26N 33°46' W 118°13'0 0.0
2018-Feb-13 19:00N 33°46' W 118°13'0 0.0
2018-Feb-13 18:30N 33°46' W 118°13'0 0.0
2018-Feb-13 18:00N 33°46' W 118°13'0 0.0
2018-Feb-13 17:26N 33°46' W 118°13'0 0.0
2018-Feb-13 16:59N 33°46' W 118°13'0 0.0
2018-Feb-13 16:27N 33°46' W 118°13'0 0.0
2018-Feb-13 15:57N 33°46' W 118°13'0 0.0
2018-Feb-13 15:26N 33°46' W 118°13'0 0.0
2018-Feb-13 14:58N 33°46' W 118°13'0 0.0
2018-Feb-13 06:50N 33°46' W 118°13'0 0.0
2018-Feb-13 01:42N 33°46' W 118°13'0 0.0
2018-Feb-13 01:29N 33°46' W 118°13'0 0.0
2018-Feb-13 01:00N 33°46' W 118°13'0 0.0
2018-Feb-13 00:28N 33°46' W 118°13'0 0.0
2018-Feb-12 23:57N 33°46' W 118°13'0 0.0
2018-Feb-12 23:29N 33°46' W 118°13'0 0.0
2018-Feb-12 22:53N 33°46' W 118°13'0 0.0
2018-Feb-12 22:30N 33°46' W 118°13'0 0.0
2018-Feb-12 21:59N 33°46' W 118°13'0 0.0
2018-Feb-12 21:26N 33°46' W 118°13'0 0.0
2018-Feb-12 20:57N 33°46' W 118°13'0 0.0
2018-Feb-12 20:26N 33°46' W 118°13'0 0.0
2018-Feb-12 19:58N 33°46' W 118°13'0 0.0
2018-Feb-12 19:28N 33°46' W 118°13'0 0.0
2018-Feb-12 18:58N 33°46' W 118°13'0 0.0
2018-Feb-12 18:28N 33°46' W 118°13'0 0.0
2018-Feb-12 17:59N 33°46' W 118°13'0 0.0
2018-Feb-12 17:29N 33°46' W 118°13'0 0.0
2018-Feb-12 16:54N 33°46' W 118°13'0 0.0
2018-Feb-12 16:30N 33°46' W 118°13'0 0.0
2018-Feb-12 15:58N 33°46' W 118°13'0 0.0
2018-Feb-12 15:17N 33°46' W 118°13'0 0.0
2018-Feb-12 15:00N 33°46' W 118°13'0 0.0
2018-Feb-12 14:01N 33°46' W 118°13'0 0.0
2018-Feb-12 13:58N 33°46' W 118°13'0 0.0
2018-Feb-12 13:26N 33°46' W 118°13'0 0.0
2018-Feb-12 12:58N 33°46' W 118°13'0 0.0
2018-Feb-12 12:27N 33°46' W 118°13'0 0.0
2018-Feb-12 11:58N 33°46' W 118°13'0 0.0
2018-Feb-12 11:29N 33°46' W 118°13'0 0.0
2018-Feb-12 10:48N 33°46' W 118°13'0 0.0
2018-Feb-12 10:30N 33°46' W 118°13'0 0.0
2018-Feb-12 06:14N 33°46' W 118°13'0 0.0
2018-Feb-12 06:00N 33°46' W 118°13'0 0.0
2018-Feb-12 05:22N 33°46' W 118°13'0 0.0
2018-Feb-12 04:56N 33°46' W 118°13'0 0.0
2018-Feb-12 04:25N 33°46' W 118°13'0 0.0
2018-Feb-12 03:55N 33°46' W 118°13'0 0.0
2018-Feb-12 02:13N 33°46' W 118°13'0 0.0
2018-Feb-12 01:56N 33°46' W 118°13'0 0.0
2018-Feb-12 01:25N 33°46' W 118°13'0 0.0
2018-Feb-12 00:57N 33°46' W 118°13'0 0.0
2018-Feb-12 00:28N 33°46' W 118°13'0 0.0
2018-Feb-11 23:56N 33°46' W 118°13'0 0.0
2018-Feb-11 23:28N 33°46' W 118°13'0 0.0
2018-Feb-11 22:54N 33°46' W 118°13'0 0.0
2018-Feb-11 22:28N 33°46' W 118°13'0 0.0
2018-Feb-11 21:55N 33°46' W 118°13'0 0.0
2018-Feb-11 21:30N 33°46' W 118°13'0 0.0
2018-Feb-11 21:00N 33°46' W 118°13'0 0.0
2018-Feb-11 20:29N 33°46' W 118°13'0 0.0
2018-Feb-11 19:57N 33°46' W 118°13'0 0.0
2018-Feb-11 19:30N 33°46' W 118°13'0 0.0
2018-Feb-11 18:59N 33°46' W 118°13'0 0.0
2018-Feb-11 18:28N 33°46' W 118°13'0 0.0
2018-Feb-11 17:58N 33°46' W 118°13'0 0.0
2018-Feb-11 17:28N 33°46' W 118°13'0 0.0
2018-Feb-11 16:58N 33°46' W 118°13'0 0.0
2018-Feb-11 16:30N 33°46' W 118°13'0 0.1
2018-Feb-11 15:59N 33°46' W 118°13'0 0.0
2018-Feb-11 15:24N 33°46' W 118°13'0 0.0
2018-Feb-11 14:54N 33°46' W 118°13'  

Dump ship's entire track history